sensor_id;sensor_type;location;lat;lon;timestamp;pressure;altitude;pressure_sealevel;temperature;humidity
16431;BME280;8325;49.284;7.238;2023-12-20T05:02:00;98929.28;;;4.29;100.00
16431;BME280;8325;49.284;7.238;2023-12-20T05:06:12;98915.28;;;4.32;100.00
16431;BME280;8325;49.284;7.238;2023-12-20T05:10:23;98926.19;;;4.35;100.00
16431;BME280;8325;49.284;7.238;2023-12-20T05:14:35;98933.00;;;4.36;100.00
16431;BME280;8325;49.284;7.238;2023-12-20T05:18:48;98941.47;;;4.38;100.00
16431;BME280;8325;49.284;7.238;2023-12-20T05:23:01;98945.00;;;4.37;100.00
16431;BME280;8325;49.284;7.238;2023-12-20T05:27:13;98962.66;;;4.32;100.00
16431;BME280;8325;49.284;7.238;2023-12-20T05:31:25;98981.09;;;4.28;100.00
16431;BME280;8325;49.284;7.238;2023-12-20T05:35:36;98981.50;;;4.23;100.00
16431;BME280;8325;49.284;7.238;2023-12-20T05:39:48;98994.34;;;4.13;100.00
16431;BME280;8325;49.284;7.238;2023-12-20T05:44:00;99001.38;;;4.11;100.00
16431;BME280;8325;49.284;7.238;2023-12-20T05:48:11;98985.53;;;4.05;100.00
16431;BME280;8325;49.284;7.238;2023-12-20T05:52:23;98989.09;;;4.04;100.00
16431;BME280;8325;49.284;7.238;2023-12-20T05:56:35;98993.41;;;4.03;100.00
16431;BME280;8325;49.284;7.238;2023-12-20T06:00:46;98998.00;;;4.00;100.00
16431;BME280;8325;49.284;7.238;2023-12-20T06:04:59;99001.88;;;3.94;100.00
16431;BME280;8325;49.284;7.238;2023-12-20T06:09:11;99001.13;;;3.82;100.00
16431;BME280;8325;49.284;7.238;2023-12-20T06:13:22;99003.22;;;3.77;100.00
16431;BME280;8325;49.284;7.238;2023-12-20T06:17:34;99008.63;;;3.74;100.00
16431;BME280;8325;49.284;7.238;2023-12-20T06:21:46;99017.91;;;3.65;100.00
16431;BME280;8325;49.284;7.238;2023-12-20T06:25:58;99020.16;;;3.59;100.00
16431;BME280;8325;49.284;7.238;2023-12-20T06:30:10;99020.63;;;3.53;100.00
16431;BME280;8325;49.284;7.238;2023-12-20T06:34:21;99016.06;;;3.45;100.00
16431;BME280;8325;49.284;7.238;2023-12-20T06:38:33;99009.13;;;3.45;100.00
16431;BME280;8325;49.284;7.238;2023-12-20T06:42:45;99007.94;;;3.38;100.00
16431;BME280;8325;49.284;7.238;2023-12-20T06:47:12;99013.78;;;3.29;100.00
16431;BME280;8325;49.284;7.238;2023-12-20T06:51:25;99028.47;;;3.29;100.00
16431;BME280;8325;49.284;7.238;2023-12-20T06:55:37;99025.53;;;3.22;100.00
16431;BME280;8325;49.284;7.238;2023-12-20T06:59:49;99026.00;;;3.27;100.00
16431;BME280;8325;49.284;7.238;2023-12-20T07:04:00;99029.88;;;3.21;100.00
16431;BME280;8325;49.284;7.238;2023-12-20T07:08:12;99024.25;;;3.28;100.00
16431;BME280;8325;49.284;7.238;2023-12-20T07:12:25;99033.16;;;3.35;100.00
16431;BME280;8325;49.284;7.238;2023-12-20T07:16:37;99044.09;;;3.38;100.00
16431;BME280;8325;49.284;7.238;2023-12-20T07:20:48;99042.94;;;3.42;100.00
16431;BME280;8325;49.284;7.238;2023-12-20T07:25:00;99036.22;;;3.40;100.00
16431;BME280;8325;49.284;7.238;2023-12-20T07:29:12;99036.81;;;3.43;100.00
16431;BME280;8325;49.284;7.238;2023-12-20T07:33:24;99037.97;;;3.51;100.00
16431;BME280;8325;49.284;7.238;2023-12-20T07:37:35;99057.72;;;3.52;100.00
16431;BME280;8325;49.284;7.238;2023-12-20T07:41:47;99053.00;;;3.57;100.00
16431;BME280;8325;49.284;7.238;2023-12-20T07:46:04;99054.44;;;3.61;100.00
16431;BME280;8325;49.284;7.238;2023-12-20T07:50:16;99056.09;;;3.62;100.00
16431;BME280;8325;49.284;7.238;2023-12-20T07:54:27;99068.19;;;3.61;100.00
16431;BME280;8325;49.284;7.238;2023-12-20T07:58:39;99080.88;;;3.64;100.00
16431;BME280;8325;49.284;7.238;2023-12-20T08:03:03;99086.38;;;3.71;100.00
16431;BME280;8325;49.284;7.238;2023-12-20T08:07:15;99087.09;;;3.73;100.00
16431;BME280;8325;49.284;7.238;2023-12-20T08:11:26;99092.03;;;3.76;100.00
16431;BME280;8325;49.284;7.238;2023-12-20T08:15:38;99102.47;;;3.75;100.00
16431;BME280;8325;49.284;7.238;2023-12-20T08:19:49;99105.63;;;3.78;100.00
16431;BME280;8325;49.284;7.238;2023-12-20T08:24:01;99122.66;;;3.81;100.00
16431;BME280;8325;49.284;7.238;2023-12-20T08:28:12;99122.56;;;3.82;100.00
16431;BME280;8325;49.284;7.238;2023-12-20T08:32:27;99113.75;;;3.85;100.00
16431;BME280;8325;49.284;7.238;2023-12-20T08:36:39;99109.88;;;3.90;100.00
16431;BME280;8325;49.284;7.238;2023-12-20T08:40:50;99108.94;;;3.91;100.00
16431;BME280;8325;49.284;7.238;2023-12-20T08:45:02;99098.13;;;3.98;100.00
16431;BME280;8325;49.284;7.238;2023-12-20T08:49:15;99107.28;;;3.90;100.00
16431;BME280;8325;49.284;7.238;2023-12-20T08:53:27;99100.00;;;3.96;100.00
16431;BME280;8325;49.284;7.238;2023-12-20T08:57:39;99089.19;;;4.02;100.00
16431;BME280;8325;49.284;7.238;2023-12-20T09:01:50;99088.94;;;4.05;100.00
16431;BME280;8325;49.284;7.238;2023-12-20T09:06:06;99104.22;;;4.08;100.00
16431;BME280;8325;49.284;7.238;2023-12-20T09:10:17;99116.34;;;4.07;100.00
16431;BME280;8325;49.284;7.238;2023-12-20T09:14:33;99122.56;;;4.16;100.00
16431;BME280;8325;49.284;7.238;2023-12-20T09:18:45;99116.31;;;4.19;100.00
16431;BME280;8325;49.284;7.238;2023-12-20T09:22:57;99112.66;;;4.21;100.00
16431;BME280;8325;49.284;7.238;2023-12-20T09:27:09;99108.44;;;4.20;100.00
16431;BME280;8325;49.284;7.238;2023-12-20T09:31:20;99113.13;;;4.26;100.00
16431;BME280;8325;49.284;7.238;2023-12-20T09:35:32;99110.88;;;4.33;100.00
16431;BME280;8325;49.284;7.238;2023-12-20T09:39:44;99112.41;;;4.35;100.00
16431;BME280;8325;49.284;7.238;2023-12-20T09:43:58;99115.47;;;4.41;100.00
16431;BME280;8325;49.284;7.238;2023-12-20T09:48:11;99118.97;;;4.39;100.00
16431;BME280;8325;49.284;7.238;2023-12-20T09:52:23;99115.94;;;4.34;100.00
16431;BME280;8325;49.284;7.238;2023-12-20T09:56:37;99126.28;;;4.34;100.00
16431;BME280;8325;49.284;7.238;2023-12-20T10:00:48;99117.44;;;4.37;100.00
16431;BME280;8325;49.284;7.238;2023-12-20T10:05:00;99117.34;;;4.38;100.00
16431;BME280;8325;49.284;7.238;2023-12-20T10:09:14;99117.34;;;4.38;100.00
16431;BME280;8325;49.284;7.238;2023-12-20T10:13:26;99119.56;;;4.43;100.00
16431;BME280;8325;49.284;7.238;2023-12-20T10:17:37;99110.63;;;4.47;100.00
16431;BME280;8325;49.284;7.238;2023-12-20T10:21:49;99091.09;;;4.54;100.00
16431;BME280;8325;49.284;7.238;2023-12-20T10:26:01;99093.06;;;4.62;100.00
16431;BME280;8325;49.284;7.238;2023-12-20T10:30:14;99102.94;;;4.68;100.00
16431;BME280;8325;49.284;7.238;2023-12-20T10:34:26;99094.06;;;4.71;100.00
16431;BME280;8325;49.284;7.238;2023-12-20T10:38:38;99104.78;;;4.77;100.00
16431;BME280;8325;49.284;7.238;2023-12-20T10:42:53;99092.16;;;4.84;100.00
16431;BME280;8325;49.284;7.238;2023-12-20T10:47:06;99086.09;;;4.95;100.00
16431;BME280;8325;49.284;7.238;2023-12-20T10:51:18;99065.63;;;4.92;100.00
16431;BME280;8325;49.284;7.238;2023-12-20T10:55:30;99057.31;;;4.88;100.00
16431;BME280;8325;49.284;7.238;2023-12-20T10:59:42;99049.50;;;4.99;100.00
16431;BME280;8325;49.284;7.238;2023-12-20T11:04:01;99057.44;;;5.07;100.00
16431;BME280;8325;49.284;7.238;2023-12-20T11:12:48;99054.72;;;5.09;100.00
16431;BME280;8325;49.284;7.238;2023-12-20T11:17:07;99048.09;;;5.16;100.00
16431;BME280;8325;49.284;7.238;2023-12-20T11:21:20;99046.00;;;5.10;100.00
16431;BME280;8325;49.284;7.238;2023-12-20T11:25:48;99047.06;;;5.07;100.00
16431;BME280;8325;49.284;7.238;2023-12-20T11:30:03;99043.66;;;5.07;100.00
16431;BME280;8325;49.284;7.238;2023-12-20T11:34:17;99032.88;;;5.02;100.00
16431;BME280;8325;49.284;7.238;2023-12-20T11:38:38;99048.44;;;5.02;100.00
16431;BME280;8325;49.284;7.238;2023-12-20T11:43:00;99056.75;;;5.05;100.00
16431;BME280;8325;49.284;7.238;2023-12-20T11:47:12;99053.34;;;5.05;100.00
16431;BME280;8325;49.284;7.238;2023-12-20T11:51:26;99056.09;;;5.13;100.00
16431;BME280;8325;49.284;7.238;2023-12-20T11:55:39;99049.59;;;5.19;100.00
16431;BME280;8325;49.284;7.238;2023-12-20T11:59:51;99042.16;;;5.25;100.00
16431;BME280;8325;49.284;7.238;2023-12-20T12:04:03;99040.38;;;5.26;100.00
16431;BME280;8325;49.284;7.238;2023-12-20T12:08:16;99033.00;;;5.21;100.00
16431;BME280;8325;49.284;7.238;2023-12-20T12:12:29;99038.75;;;5.25;100.00
16431;BME280;8325;49.284;7.238;2023-12-20T12:16:42;99048.78;;;5.18;100.00
16431;BME280;8325;49.284;7.238;2023-12-20T12:21:00;99041.03;;;5.18;100.00
16431;BME280;8325;49.284;7.238;2023-12-20T12:25:13;99046.06;;;5.20;100.00
16431;BME280;8325;49.284;7.238;2023-12-20T12:29:25;99042.78;;;5.18;100.00
16431;BME280;8325;49.284;7.238;2023-12-20T12:33:37;99055.03;;;5.16;100.00
16431;BME280;8325;49.284;7.238;2023-12-20T12:37:49;99057.81;;;5.24;100.00
16431;BME280;8325;49.284;7.238;2023-12-20T12:42:00;99055.09;;;5.25;100.00
16431;BME280;8325;49.284;7.238;2023-12-20T12:46:12;99050.72;;;5.26;100.00
16431;BME280;8325;49.284;7.238;2023-12-20T12:50:24;99049.91;;;5.25;100.00
16431;BME280;8325;49.284;7.238;2023-12-20T12:54:36;99041.47;;;5.23;100.00
16431;BME280;8325;49.284;7.238;2023-12-20T12:58:47;99033.25;;;5.18;100.00
16431;BME280;8325;49.284;7.238;2023-12-20T13:02:59;99025.75;;;5.15;100.00
16431;BME280;8325;49.284;7.238;2023-12-20T13:07:11;99023.41;;;5.12;100.00
16431;BME280;8325;49.284;7.238;2023-12-20T13:11:23;99005.13;;;5.14;100.00
16431;BME280;8325;49.284;7.238;2023-12-20T13:15:34;98998.22;;;5.14;100.00
16431;BME280;8325;49.284;7.238;2023-12-20T13:19:46;98992.06;;;5.15;100.00
16431;BME280;8325;49.284;7.238;2023-12-20T13:23:58;98977.91;;;5.19;100.00
16431;BME280;8325;49.284;7.238;2023-12-20T13:28:09;98975.75;;;5.24;100.00
16431;BME280;8325;49.284;7.238;2023-12-20T13:32:21;98954.53;;;5.30;100.00
16431;BME280;8325;49.284;7.238;2023-12-20T13:36:33;98951.41;;;5.37;100.00
16431;BME280;8325;49.284;7.238;2023-12-20T13:40:45;98948.00;;;5.36;100.00
16431;BME280;8325;49.284;7.238;2023-12-20T13:44:57;98953.25;;;5.25;100.00
16431;BME280;8325;49.284;7.238;2023-12-20T13:49:08;98943.88;;;5.24;100.00
16431;BME280;8325;49.284;7.238;2023-12-20T13:53:21;98940.72;;;5.20;100.00
16431;BME280;8325;49.284;7.238;2023-12-20T13:57:32;98937.88;;;5.23;100.00
16431;BME280;8325;49.284;7.238;2023-12-20T14:01:47;98926.81;;;5.21;100.00
16431;BME280;8325;49.284;7.238;2023-12-20T14:06:00;98931.84;;;5.23;100.00
16431;BME280;8325;49.284;7.238;2023-12-20T14:10:13;98940.03;;;5.18;100.00
16431;BME280;8325;49.284;7.238;2023-12-20T14:14:25;98946.41;;;5.14;100.00
16431;BME280;8325;49.284;7.238;2023-12-20T14:18:37;98949.69;;;5.16;100.00
16431;BME280;8325;49.284;7.238;2023-12-20T14:22:48;98942.72;;;5.17;100.00
16431;BME280;8325;49.284;7.238;2023-12-20T14:27:00;98929.91;;;5.15;100.00
16431;BME280;8325;49.284;7.238;2023-12-20T14:31:11;98920.63;;;5.13;100.00
16431;BME280;8325;49.284;7.238;2023-12-20T14:35:23;98940.53;;;5.12;100.00
16431;BME280;8325;49.284;7.238;2023-12-20T14:39:35;98929.38;;;5.12;100.00
16431;BME280;8325;49.284;7.238;2023-12-20T14:43:51;98924.84;;;5.14;100.00
16431;BME280;8325;49.284;7.238;2023-12-20T14:48:05;98917.59;;;5.07;100.00
16431;BME280;8325;49.284;7.238;2023-12-20T14:52:18;98927.41;;;5.04;100.00
16431;BME280;8325;49.284;7.238;2023-12-20T14:56:30;98920.59;;;5.03;100.00
16431;BME280;8325;49.284;7.238;2023-12-20T15:00:42;98915.41;;;5.03;100.00
16431;BME280;8325;49.284;7.238;2023-12-20T15:04:54;98912.84;;;5.03;100.00
16431;BME280;8325;49.284;7.238;2023-12-20T15:09:05;98909.16;;;5.05;100.00
16431;BME280;8325;49.284;7.238;2023-12-20T15:13:17;98895.41;;;5.05;100.00
16431;BME280;8325;49.284;7.238;2023-12-20T15:17:29;98898.25;;;5.02;100.00
16431;BME280;8325;49.284;7.238;2023-12-20T15:21:41;98893.09;;;5.02;100.00
16431;BME280;8325;49.284;7.238;2023-12-20T15:25:58;98877.81;;;4.99;100.00
16431;BME280;8325;49.284;7.238;2023-12-20T15:30:10;98878.63;;;4.99;100.00
16431;BME280;8325;49.284;7.238;2023-12-20T15:34:22;98879.25;;;4.92;100.00
16431;BME280;8325;49.284;7.238;2023-12-20T15:38:33;98879.13;;;4.93;100.00
16431;BME280;8325;49.284;7.238;2023-12-20T15:42:46;98882.41;;;4.95;100.00
16431;BME280;8325;49.284;7.238;2023-12-20T15:46:57;98890.06;;;4.97;100.00
16431;BME280;8325;49.284;7.238;2023-12-20T15:51:09;98884.72;;;4.98;100.00
16431;BME280;8325;49.284;7.238;2023-12-20T15:55:21;98879.56;;;4.98;100.00
16431;BME280;8325;49.284;7.238;2023-12-20T15:59:33;98882.13;;;4.98;100.00
16431;BME280;8325;49.284;7.238;2023-12-20T16:03:44;98874.38;;;4.98;100.00
16431;BME280;8325;49.284;7.238;2023-12-20T16:08:06;98873.16;;;4.93;100.00
16431;BME280;8325;49.284;7.238;2023-12-20T16:12:18;98871.78;;;4.98;100.00
16431;BME280;8325;49.284;7.238;2023-12-20T16:16:30;98867.44;;;4.99;100.00
16431;BME280;8325;49.284;7.238;2023-12-20T16:20:42;98870.59;;;5.02;100.00
16431;BME280;8325;49.284;7.238;2023-12-20T16:24:53;98865.53;;;5.01;100.00
16431;BME280;8325;49.284;7.238;2023-12-20T16:29:05;98873.28;;;5.01;100.00
16431;BME280;8325;49.284;7.238;2023-12-20T16:33:16;98874.13;;;5.01;100.00
16431;BME280;8325;49.284;7.238;2023-12-20T16:37:29;98859.53;;;5.00;100.00
16431;BME280;8325;49.284;7.238;2023-12-20T16:41:40;98866.22;;;5.03;100.00
16431;BME280;8325;49.284;7.238;2023-12-20T16:45:52;98879.19;;;5.03;100.00
16431;BME280;8325;49.284;7.238;2023-12-20T16:50:04;98878.91;;;5.06;100.00
16431;BME280;8325;49.284;7.238;2023-12-20T16:54:18;98890.91;;;5.07;100.00
16431;BME280;8325;49.284;7.238;2023-12-20T16:58:29;98893.75;;;5.04;100.00
16431;BME280;8325;49.284;7.238;2023-12-20T17:02:41;98905.06;;;5.03;100.00
16431;BME280;8325;49.284;7.238;2023-12-20T17:06:53;98901.50;;;5.04;100.00
16431;BME280;8325;49.284;7.238;2023-12-20T17:11:04;98892.50;;;4.98;100.00
16431;BME280;8325;49.284;7.238;2023-12-20T17:15:16;98903.69;;;4.99;100.00
16431;BME280;8325;49.284;7.238;2023-12-20T17:19:28;98894.97;;;5.00;100.00
16431;BME280;8325;49.284;7.238;2023-12-20T17:23:42;98896.59;;;5.01;100.00
16431;BME280;8325;49.284;7.238;2023-12-20T17:27:54;98893.63;;;5.05;100.00
16431;BME280;8325;49.284;7.238;2023-12-20T17:32:08;98898.00;;;5.05;100.00
16431;BME280;8325;49.284;7.238;2023-12-20T17:36:19;98902.59;;;5.01;100.00
16431;BME280;8325;49.284;7.238;2023-12-20T17:40:31;98900.59;;;5.05;100.00
16431;BME280;8325;49.284;7.238;2023-12-20T17:44:42;98884.88;;;4.97;100.00
16431;BME280;8325;49.284;7.238;2023-12-20T17:48:54;98888.84;;;5.01;100.00
16431;BME280;8325;49.284;7.238;2023-12-20T17:53:07;98867.44;;;4.99;100.00
16431;BME280;8325;49.284;7.238;2023-12-20T17:57:19;98862.81;;;5.02;100.00
16431;BME280;8325;49.284;7.238;2023-12-20T18:01:30;98859.28;;;5.03;100.00
16431;BME280;8325;49.284;7.238;2023-12-20T18:05:42;98853.03;;;5.06;100.00
16431;BME280;8325;49.284;7.238;2023-12-20T18:09:54;98857.75;;;5.01;100.00
16431;BME280;8325;49.284;7.238;2023-12-20T18:14:05;98862.16;;;5.10;100.00
16431;BME280;8325;49.284;7.238;2023-12-20T18:18:17;98841.84;;;5.05;100.00
16431;BME280;8325;49.284;7.238;2023-12-20T18:22:29;98842.38;;;4.99;100.00
16431;BME280;8325;49.284;7.238;2023-12-20T18:26:40;98832.28;;;4.96;100.00
16431;BME280;8325;49.284;7.238;2023-12-20T18:30:52;98839.53;;;5.02;100.00
16431;BME280;8325;49.284;7.238;2023-12-20T18:35:04;98828.47;;;5.00;100.00
16431;BME280;8325;49.284;7.238;2023-12-20T18:39:16;98817.31;;;5.00;100.00
16431;BME280;8325;49.284;7.238;2023-12-20T18:43:27;98819.47;;;5.04;100.00
16431;BME280;8325;49.284;7.238;2023-12-20T18:47:39;98806.94;;;5.00;100.00
16431;BME280;8325;49.284;7.238;2023-12-20T18:51:51;98805.88;;;5.02;100.00
16431;BME280;8325;49.284;7.238;2023-12-20T18:56:03;98807.22;;;4.97;100.00
16431;BME280;8325;49.284;7.238;2023-12-20T19:00:15;98807.91;;;4.99;100.00
16431;BME280;8325;49.284;7.238;2023-12-20T19:04:26;98812.13;;;5.00;100.00
16431;BME280;8325;49.284;7.238;2023-12-20T19:08:38;98813.75;;;5.01;100.00
16431;BME280;8325;49.284;7.238;2023-12-20T19:12:51;98801.06;;;4.98;100.00
16431;BME280;8325;49.284;7.238;2023-12-20T19:17:03;98799.03;;;5.01;100.00
16431;BME280;8325;49.284;7.238;2023-12-20T19:21:15;98786.09;;;5.01;100.00
16431;BME280;8325;49.284;7.238;2023-12-20T19:25:28;98776.31;;;5.05;100.00
16431;BME280;8325;49.284;7.238;2023-12-20T19:29:40;98792.25;;;5.10;100.00
16431;BME280;8325;49.284;7.238;2023-12-20T19:33:51;98781.88;;;5.10;100.00
16431;BME280;8325;49.284;7.238;2023-12-20T19:38:04;98778.09;;;5.14;100.00
16431;BME280;8325;49.284;7.238;2023-12-20T19:42:16;98777.13;;;5.15;100.00
16431;BME280;8325;49.284;7.238;2023-12-20T19:46:28;98786.00;;;5.22;100.00
16431;BME280;8325;49.284;7.238;2023-12-20T19:50:40;98775.09;;;5.19;100.00
16431;BME280;8325;49.284;7.238;2023-12-20T19:54:51;98774.72;;;5.23;100.00
16431;BME280;8325;49.284;7.238;2023-12-20T19:59:03;98760.38;;;5.29;100.00
16431;BME280;8325;49.284;7.238;2023-12-20T20:03:15;98764.75;;;5.28;100.00
16431;BME280;8325;49.284;7.238;2023-12-20T20:07:26;98761.06;;;5.31;100.00
16431;BME280;8325;49.284;7.238;2023-12-20T20:11:38;98761.19;;;5.29;100.00
16431;BME280;8325;49.284;7.238;2023-12-20T20:15:49;98744.44;;;5.34;100.00
16431;BME280;8325;49.284;7.238;2023-12-20T20:20:01;98748.38;;;5.38;100.00
16431;BME280;8325;49.284;7.238;2023-12-20T20:24:14;98740.78;;;5.36;100.00
16431;BME280;8325;49.284;7.238;2023-12-20T20:28:26;98729.84;;;5.32;100.00
16431;BME280;8325;49.284;7.238;2023-12-20T20:32:39;98723.84;;;5.32;100.00
16431;BME280;8325;49.284;7.238;2023-12-20T20:36:51;98725.06;;;5.38;100.00
16431;BME280;8325;49.284;7.238;2023-12-20T20:41:03;98712.13;;;5.38;100.00
16431;BME280;8325;49.284;7.238;2023-12-20T20:45:15;98718.94;;;5.39;100.00
16431;BME280;8325;49.284;7.238;2023-12-20T20:49:27;98707.75;;;5.38;100.00
16431;BME280;8325;49.284;7.238;2023-12-20T20:53:40;98692.63;;;5.34;100.00
16431;BME280;8325;49.284;7.238;2023-12-20T20:57:52;98688.28;;;5.34;100.00
16431;BME280;8325;49.284;7.238;2023-12-20T21:02:03;98681.47;;;5.33;100.00
16431;BME280;8325;49.284;7.238;2023-12-20T21:06:15;98683.09;;;5.34;100.00
16431;BME280;8325;49.284;7.238;2023-12-20T21:10:27;98676.00;;;5.36;100.00
16431;BME280;8325;49.284;7.238;2023-12-20T21:14:38;98670.94;;;5.35;100.00
16431;BME280;8325;49.284;7.238;2023-12-20T21:18:50;98663.88;;;5.37;100.00
16431;BME280;8325;49.284;7.238;2023-12-20T21:23:02;98665.66;;;5.36;100.00
16431;BME280;8325;49.284;7.238;2023-12-20T21:27:15;98661.13;;;5.38;100.00
16431;BME280;8325;49.284;7.238;2023-12-20T21:31:26;98666.47;;;5.37;100.00
16431;BME280;8325;49.284;7.238;2023-12-20T21:35:38;98658.13;;;5.43;100.00
16431;BME280;8325;49.284;7.238;2023-12-20T21:39:49;98661.66;;;5.42;100.00
16431;BME280;8325;49.284;7.238;2023-12-20T21:44:01;98651.31;;;5.42;100.00
16431;BME280;8325;49.284;7.238;2023-12-20T21:48:13;98628.41;;;5.47;100.00
16431;BME280;8325;49.284;7.238;2023-12-20T21:52:25;98622.25;;;5.48;100.00
16431;BME280;8325;49.284;7.238;2023-12-20T21:56:36;98612.56;;;5.50;100.00
16431;BME280;8325;49.284;7.238;2023-12-20T22:00:48;98616.94;;;5.49;100.00
16431;BME280;8325;49.284;7.238;2023-12-20T22:05:00;98626.09;;;5.44;100.00
16431;BME280;8325;49.284;7.238;2023-12-20T22:09:11;98619.13;;;5.44;100.00
16431;BME280;8325;49.284;7.238;2023-12-20T22:13:26;98606.84;;;5.46;100.00
16431;BME280;8325;49.284;7.238;2023-12-20T22:17:42;98617.22;;;5.46;100.00
16431;BME280;8325;49.284;7.238;2023-12-20T22:21:54;98600.88;;;5.46;100.00
16431;BME280;8325;49.284;7.238;2023-12-20T22:26:05;98595.81;;;5.44;100.00
